sensor_id;sensor_type;location;lat;lon;timestamp;P1;durP1;ratioP1;P2;durP2;ratioP2
21741;SDS011;11033;47.490;11.116;2023-12-04T00:01:35;3.65;;;2.70;;
21741;SDS011;11033;47.490;11.116;2023-12-04T00:04:01;4.22;;;2.88;;
21741;SDS011;11033;47.490;11.116;2023-12-04T00:06:27;3.25;;;2.58;;
21741;SDS011;11033;47.490;11.116;2023-12-04T00:08:53;3.58;;;2.72;;
21741;SDS011;11033;47.490;11.116;2023-12-04T00:11:18;3.63;;;2.30;;
21741;SDS011;11033;47.490;11.116;2023-12-04T00:13:44;2.45;;;2.20;;
21741;SDS011;11033;47.490;11.116;2023-12-04T00:16:09;3.97;;;2.13;;
21741;SDS011;11033;47.490;11.116;2023-12-04T00:18:34;3.30;;;2.50;;
21741;SDS011;11033;47.490;11.116;2023-12-04T00:21:00;2.28;;;2.00;;
21741;SDS011;11033;47.490;11.116;2023-12-04T00:23:25;3.03;;;2.40;;
21741;SDS011;11033;47.490;11.116;2023-12-04T00:25:50;3.35;;;2.30;;
21741;SDS011;11033;47.490;11.116;2023-12-04T00:28:16;2.78;;;2.15;;
21741;SDS011;11033;47.490;11.116;2023-12-04T00:30:41;2.95;;;2.20;;
21741;SDS011;11033;47.490;11.116;2023-12-04T00:33:06;4.18;;;2.20;;
21741;SDS011;11033;47.490;11.116;2023-12-04T00:35:32;4.05;;;2.40;;
21741;SDS011;11033;47.490;11.116;2023-12-04T00:37:57;3.50;;;2.42;;
21741;SDS011;11033;47.490;11.116;2023-12-04T00:40:22;3.10;;;2.10;;
21741;SDS011;11033;47.490;11.116;2023-12-04T00:42:48;3.35;;;2.40;;
21741;SDS011;11033;47.490;11.116;2023-12-04T00:45:13;3.42;;;2.55;;
21741;SDS011;11033;47.490;11.116;2023-12-04T00:47:38;3.45;;;2.30;;
21741;SDS011;11033;47.490;11.116;2023-12-04T00:50:04;3.65;;;2.20;;
21741;SDS011;11033;47.490;11.116;2023-12-04T00:52:29;2.45;;;1.95;;
21741;SDS011;11033;47.490;11.116;2023-12-04T00:54:55;2.58;;;2.30;;
21741;SDS011;11033;47.490;11.116;2023-12-04T00:57:20;3.72;;;2.40;;
21741;SDS011;11033;47.490;11.116;2023-12-04T00:59:46;2.13;;;1.83;;
21741;SDS011;11033;47.490;11.116;2023-12-04T01:02:11;2.75;;;2.00;;
21741;SDS011;11033;47.490;11.116;2023-12-04T01:04:39;2.47;;;1.98;;
21741;SDS011;11033;47.490;11.116;2023-12-04T01:07:05;4.28;;;2.80;;
21741;SDS011;11033;47.490;11.116;2023-12-04T01:09:30;3.13;;;2.28;;
21741;SDS011;11033;47.490;11.116;2023-12-04T01:11:55;2.47;;;1.90;;
21741;SDS011;11033;47.490;11.116;2023-12-04T01:14:21;2.08;;;1.88;;
21741;SDS011;11033;47.490;11.116;2023-12-04T01:16:47;3.03;;;2.30;;
21741;SDS011;11033;47.490;11.116;2023-12-04T01:19:12;2.63;;;1.90;;
21741;SDS011;11033;47.490;11.116;2023-12-04T01:21:38;2.50;;;1.92;;
21741;SDS011;11033;47.490;11.116;2023-12-04T01:24:03;2.13;;;1.77;;
21741;SDS011;11033;47.490;11.116;2023-12-04T01:26:28;1.98;;;1.73;;
21741;SDS011;11033;47.490;11.116;2023-12-04T01:28:54;4.13;;;2.05;;
21741;SDS011;11033;47.490;11.116;2023-12-04T01:31:20;2.58;;;1.90;;
21741;SDS011;11033;47.490;11.116;2023-12-04T01:33:45;1.92;;;1.65;;
21741;SDS011;11033;47.490;11.116;2023-12-04T01:36:10;1.83;;;1.70;;
21741;SDS011;11033;47.490;11.116;2023-12-04T01:38:36;2.40;;;1.80;;
21741;SDS011;11033;47.490;11.116;2023-12-04T01:41:02;2.40;;;1.85;;
21741;SDS011;11033;47.490;11.116;2023-12-04T01:43:28;2.33;;;1.80;;
21741;SDS011;11033;47.490;11.116;2023-12-04T01:45:53;2.47;;;1.92;;
21741;SDS011;11033;47.490;11.116;2023-12-04T01:48:19;2.72;;;2.00;;
21741;SDS011;11033;47.490;11.116;2023-12-04T01:50:44;2.53;;;2.20;;
21741;SDS011;11033;47.490;11.116;2023-12-04T01:53:10;2.90;;;1.85;;
21741;SDS011;11033;47.490;11.116;2023-12-04T01:55:35;2.75;;;1.92;;
21741;SDS011;11033;47.490;11.116;2023-12-04T01:58:03;2.72;;;2.10;;
21741;SDS011;11033;47.490;11.116;2023-12-04T02:00:30;3.60;;;1.90;;
21741;SDS011;11033;47.490;11.116;2023-12-04T02:02:56;3.17;;;1.90;;
21741;SDS011;11033;47.490;11.116;2023-12-04T02:05:23;2.17;;;1.98;;
21741;SDS011;11033;47.490;11.116;2023-12-04T02:07:49;2.28;;;1.85;;
21741;SDS011;11033;47.490;11.116;2023-12-04T02:10:15;4.10;;;2.00;;
21741;SDS011;11033;47.490;11.116;2023-12-04T02:12:40;2.97;;;2.08;;
21741;SDS011;11033;47.490;11.116;2023-12-04T02:15:06;3.17;;;2.08;;
21741;SDS011;11033;47.490;11.116;2023-12-04T02:17:31;1.98;;;1.60;;
21741;SDS011;11033;47.490;11.116;2023-12-04T02:19:58;2.45;;;1.67;;
21741;SDS011;11033;47.490;11.116;2023-12-04T02:22:24;1.95;;;1.75;;
21741;SDS011;11033;47.490;11.116;2023-12-04T02:24:49;3.28;;;1.80;;
21741;SDS011;11033;47.490;11.116;2023-12-04T02:27:18;2.95;;;1.60;;
21741;SDS011;11033;47.490;11.116;2023-12-04T02:29:48;2.65;;;1.60;;
21741;SDS011;11033;47.490;11.116;2023-12-04T02:32:21;2.45;;;1.60;;
21741;SDS011;11033;47.490;11.116;2023-12-04T02:34:47;2.72;;;2.10;;
21741;SDS011;11033;47.490;11.116;2023-12-04T02:37:14;4.30;;;1.50;;
21741;SDS011;11033;47.490;11.116;2023-12-04T02:39:41;1.77;;;1.50;;
21741;SDS011;11033;47.490;11.116;2023-12-04T02:42:07;1.90;;;1.70;;
21741;SDS011;11033;47.490;11.116;2023-12-04T02:44:33;1.85;;;1.45;;
21741;SDS011;11033;47.490;11.116;2023-12-04T02:46:58;1.85;;;1.63;;
21741;SDS011;11033;47.490;11.116;2023-12-04T02:49:23;3.38;;;1.60;;
21741;SDS011;11033;47.490;11.116;2023-12-04T02:51:48;1.85;;;1.52;;
21741;SDS011;11033;47.490;11.116;2023-12-04T02:54:14;1.98;;;1.63;;
21741;SDS011;11033;47.490;11.116;2023-12-04T02:56:39;2.78;;;1.80;;
21741;SDS011;11033;47.490;11.116;2023-12-04T02:59:04;1.70;;;1.60;;
21741;SDS011;11033;47.490;11.116;2023-12-04T03:01:30;2.55;;;1.40;;
21741;SDS011;11033;47.490;11.116;2023-12-04T03:03:55;1.85;;;1.65;;
21741;SDS011;11033;47.490;11.116;2023-12-04T03:06:20;1.88;;;1.77;;
21741;SDS011;11033;47.490;11.116;2023-12-04T03:08:46;2.03;;;1.60;;
21741;SDS011;11033;47.490;11.116;2023-12-04T03:11:11;1.52;;;1.42;;
21741;SDS011;11033;47.490;11.116;2023-12-04T03:13:37;2.70;;;1.83;;
21741;SDS011;11033;47.490;11.116;2023-12-04T03:16:02;2.63;;;1.40;;
21741;SDS011;11033;47.490;11.116;2023-12-04T03:18:27;1.75;;;1.58;;
21741;SDS011;11033;47.490;11.116;2023-12-04T03:20:53;1.77;;;1.50;;
21741;SDS011;11033;47.490;11.116;2023-12-04T03:23:19;3.67;;;1.60;;
21741;SDS011;11033;47.490;11.116;2023-12-04T03:25:44;2.05;;;1.55;;
21741;SDS011;11033;47.490;11.116;2023-12-04T03:28:10;3.47;;;1.60;;
21741;SDS011;11033;47.490;11.116;2023-12-04T03:30:35;2.72;;;1.50;;
21741;SDS011;11033;47.490;11.116;2023-12-04T03:33:00;1.73;;;1.50;;
21741;SDS011;11033;47.490;11.116;2023-12-04T03:35:26;2.55;;;1.30;;
21741;SDS011;11033;47.490;11.116;2023-12-04T03:37:51;1.50;;;1.40;;
21741;SDS011;11033;47.490;11.116;2023-12-04T03:40:17;1.80;;;1.60;;
21741;SDS011;11033;47.490;11.116;2023-12-04T03:42:42;1.95;;;1.50;;
21741;SDS011;11033;47.490;11.116;2023-12-04T03:45:08;2.47;;;1.38;;
21741;SDS011;11033;47.490;11.116;2023-12-04T03:47:33;1.30;;;1.20;;
21741;SDS011;11033;47.490;11.116;2023-12-04T03:49:59;1.98;;;1.65;;
21741;SDS011;11033;47.490;11.116;2023-12-04T03:52:24;1.42;;;1.27;;
21741;SDS011;11033;47.490;11.116;2023-12-04T03:54:49;2.83;;;1.60;;
21741;SDS011;11033;47.490;11.116;2023-12-04T03:57:14;1.58;;;1.48;;
21741;SDS011;11033;47.490;11.116;2023-12-04T03:59:40;1.63;;;1.40;;
21741;SDS011;11033;47.490;11.116;2023-12-04T04:02:05;1.30;;;1.20;;
21741;SDS011;11033;47.490;11.116;2023-12-04T04:04:30;1.60;;;1.40;;
21741;SDS011;11033;47.490;11.116;2023-12-04T04:06:56;1.70;;;1.60;;
21741;SDS011;11033;47.490;11.116;2023-12-04T04:09:21;1.77;;;1.48;;
21741;SDS011;11033;47.490;11.116;2023-12-04T04:11:47;1.73;;;1.30;;
21741;SDS011;11033;47.490;11.116;2023-12-04T04:14:12;2.17;;;1.33;;
21741;SDS011;11033;47.490;11.116;2023-12-04T04:16:37;2.83;;;1.33;;
21741;SDS011;11033;47.490;11.116;2023-12-04T04:19:03;1.58;;;1.48;;
21741;SDS011;11033;47.490;11.116;2023-12-04T04:21:28;2.28;;;1.50;;
21741;SDS011;11033;47.490;11.116;2023-12-04T04:23:53;1.27;;;1.17;;
21741;SDS011;11033;47.490;11.116;2023-12-04T04:26:19;1.27;;;1.20;;
21741;SDS011;11033;47.490;11.116;2023-12-04T04:28:44;1.77;;;1.20;;
21741;SDS011;11033;47.490;11.116;2023-12-04T04:31:09;2.15;;;1.30;;
21741;SDS011;11033;47.490;11.116;2023-12-04T04:33:35;2.05;;;1.10;;
21741;SDS011;11033;47.490;11.116;2023-12-04T04:36:00;1.55;;;1.45;;
21741;SDS011;11033;47.490;11.116;2023-12-04T04:38:25;1.23;;;1.13;;
21741;SDS011;11033;47.490;11.116;2023-12-04T04:40:51;1.35;;;1.25;;
21741;SDS011;11033;47.490;11.116;2023-12-04T04:43:17;1.50;;;1.25;;
21741;SDS011;11033;47.490;11.116;2023-12-04T04:45:43;1.30;;;1.20;;
21741;SDS011;11033;47.490;11.116;2023-12-04T04:48:08;1.27;;;1.17;;
21741;SDS011;11033;47.490;11.116;2023-12-04T04:50:33;1.65;;;1.30;;
21741;SDS011;11033;47.490;11.116;2023-12-04T04:52:59;1.40;;;1.30;;
21741;SDS011;11033;47.490;11.116;2023-12-04T04:55:24;1.77;;;1.40;;
21741;SDS011;11033;47.490;11.116;2023-12-04T04:57:49;1.95;;;1.00;;
21741;SDS011;11033;47.490;11.116;2023-12-04T05:00:15;1.38;;;1.27;;
21741;SDS011;11033;47.490;11.116;2023-12-04T05:02:41;2.00;;;1.20;;
21741;SDS011;11033;47.490;11.116;2023-12-04T05:05:06;1.83;;;1.38;;
21741;SDS011;11033;47.490;11.116;2023-12-04T05:07:32;1.60;;;1.40;;
21741;SDS011;11033;47.490;11.116;2023-12-04T05:09:57;1.42;;;1.30;;
21741;SDS011;11033;47.490;11.116;2023-12-04T05:12:22;1.67;;;1.30;;
21741;SDS011;11033;47.490;11.116;2023-12-04T05:14:48;1.52;;;1.40;;
21741;SDS011;11033;47.490;11.116;2023-12-04T05:17:13;1.60;;;1.50;;
21741;SDS011;11033;47.490;11.116;2023-12-04T05:19:38;1.80;;;1.50;;
21741;SDS011;11033;47.490;11.116;2023-12-04T05:22:04;1.27;;;1.05;;
21741;SDS011;11033;47.490;11.116;2023-12-04T05:24:29;1.52;;;1.40;;
21741;SDS011;11033;47.490;11.116;2023-12-04T05:26:54;1.88;;;1.17;;
21741;SDS011;11033;47.490;11.116;2023-12-04T05:29:20;1.30;;;1.20;;
21741;SDS011;11033;47.490;11.116;2023-12-04T05:31:45;1.15;;;1.08;;
21741;SDS011;11033;47.490;11.116;2023-12-04T05:34:11;1.30;;;1.20;;
21741;SDS011;11033;47.490;11.116;2023-12-04T05:36:36;1.30;;;1.20;;
21741;SDS011;11033;47.490;11.116;2023-12-04T05:39:01;1.42;;;1.20;;
21741;SDS011;11033;47.490;11.116;2023-12-04T05:41:28;1.30;;;1.20;;
21741;SDS011;11033;47.490;11.116;2023-12-04T05:43:53;1.77;;;1.50;;
21741;SDS011;11033;47.490;11.116;2023-12-04T05:46:18;3.20;;;1.42;;
21741;SDS011;11033;47.490;11.116;2023-12-04T05:48:43;1.88;;;1.30;;
21741;SDS011;11033;47.490;11.116;2023-12-04T05:51:09;1.67;;;1.40;;
21741;SDS011;11033;47.490;11.116;2023-12-04T05:53:36;2.00;;;1.23;;
21741;SDS011;11033;47.490;11.116;2023-12-04T05:56:01;1.45;;;1.30;;
21741;SDS011;11033;47.490;11.116;2023-12-04T05:58:27;2.03;;;1.17;;
21741;SDS011;11033;47.490;11.116;2023-12-04T06:00:52;2.20;;;1.50;;
21741;SDS011;11033;47.490;11.116;2023-12-04T06:03:17;1.52;;;1.10;;
21741;SDS011;11033;47.490;11.116;2023-12-04T06:05:43;1.38;;;1.27;;
21741;SDS011;11033;47.490;11.116;2023-12-04T06:08:08;2.35;;;1.40;;
21741;SDS011;11033;47.490;11.116;2023-12-04T06:10:33;2.00;;;1.50;;
21741;SDS011;11033;47.490;11.116;2023-12-04T06:13:00;1.50;;;1.40;;
21741;SDS011;11033;47.490;11.116;2023-12-04T06:15:25;1.48;;;1.38;;
21741;SDS011;11033;47.490;11.116;2023-12-04T06:17:50;1.70;;;1.60;;
21741;SDS011;11033;47.490;11.116;2023-12-04T06:20:16;2.80;;;1.65;;
21741;SDS011;11033;47.490;11.116;2023-12-04T06:22:41;1.40;;;1.30;;
21741;SDS011;11033;47.490;11.116;2023-12-04T06:25:07;1.75;;;1.38;;
21741;SDS011;11033;47.490;11.116;2023-12-04T06:27:33;1.45;;;1.33;;
21741;SDS011;11033;47.490;11.116;2023-12-04T06:29:58;1.60;;;1.30;;
21741;SDS011;11033;47.490;11.116;2023-12-04T06:32:24;2.13;;;1.20;;
21741;SDS011;11033;47.490;11.116;2023-12-04T06:34:50;1.55;;;1.30;;
21741;SDS011;11033;47.490;11.116;2023-12-04T06:37:15;1.30;;;1.20;;
21741;SDS011;11033;47.490;11.116;2023-12-04T06:39:41;2.17;;;1.17;;
21741;SDS011;11033;47.490;11.116;2023-12-04T06:42:07;3.75;;;1.52;;
21741;SDS011;11033;47.490;11.116;2023-12-04T06:44:33;1.63;;;1.35;;
21741;SDS011;11033;47.490;11.116;2023-12-04T06:47:02;1.98;;;1.77;;
21741;SDS011;11033;47.490;11.116;2023-12-04T06:49:29;2.20;;;1.80;;
21741;SDS011;11033;47.490;11.116;2023-12-04T06:51:56;2.95;;;2.28;;
21741;SDS011;11033;47.490;11.116;2023-12-04T06:54:21;3.53;;;1.73;;
21741;SDS011;11033;47.490;11.116;2023-12-04T06:56:46;2.55;;;1.80;;
21741;SDS011;11033;47.490;11.116;2023-12-04T06:59:12;4.78;;;1.73;;
21741;SDS011;11033;47.490;11.116;2023-12-04T07:01:37;1.30;;;1.20;;
21741;SDS011;11033;47.490;11.116;2023-12-04T07:04:02;1.67;;;1.58;;
21741;SDS011;11033;47.490;11.116;2023-12-04T07:06:34;1.50;;;1.27;;
21741;SDS011;11033;47.490;11.116;2023-12-04T07:09:00;2.78;;;1.30;;
21741;SDS011;11033;47.490;11.116;2023-12-04T07:11:26;2.05;;;1.50;;
21741;SDS011;11033;47.490;11.116;2023-12-04T07:13:51;2.40;;;1.38;;
21741;SDS011;11033;47.490;11.116;2023-12-04T07:16:16;2.65;;;1.40;;
21741;SDS011;11033;47.490;11.116;2023-12-04T07:18:42;2.17;;;1.63;;
21741;SDS011;11033;47.490;11.116;2023-12-04T07:21:07;2.17;;;1.60;;
21741;SDS011;11033;47.490;11.116;2023-12-04T07:23:33;2.05;;;1.50;;
21741;SDS011;11033;47.490;11.116;2023-12-04T07:25:58;1.85;;;1.60;;
21741;SDS011;11033;47.490;11.116;2023-12-04T07:28:23;1.95;;;1.75;;
21741;SDS011;11033;47.490;11.116;2023-12-04T07:30:49;3.83;;;1.98;;
21741;SDS011;11033;47.490;11.116;2023-12-04T07:33:14;3.58;;;1.80;;
21741;SDS011;11033;47.490;11.116;2023-12-04T07:35:40;1.92;;;1.50;;
21741;SDS011;11033;47.490;11.116;2023-12-04T07:38:05;2.78;;;1.67;;
21741;SDS011;11033;47.490;11.116;2023-12-04T07:40:30;2.72;;;1.80;;
21741;SDS011;11033;47.490;11.116;2023-12-04T07:42:57;2.47;;;1.90;;
21741;SDS011;11033;47.490;11.116;2023-12-04T07:45:22;2.45;;;1.88;;
21741;SDS011;11033;47.490;11.116;2023-12-04T07:47:49;2.00;;;1.50;;
21741;SDS011;11033;47.490;11.116;2023-12-04T07:50:15;1.60;;;1.50;;
21741;SDS011;11033;47.490;11.116;2023-12-04T07:52:41;2.35;;;1.70;;
21741;SDS011;11033;47.490;11.116;2023-12-04T07:55:06;2.30;;;2.10;;
21741;SDS011;11033;47.490;11.116;2023-12-04T07:57:32;2.10;;;1.60;;
21741;SDS011;11033;47.490;11.116;2023-12-04T07:59:57;2.90;;;1.73;;
21741;SDS011;11033;47.490;11.116;2023-12-04T08:02:23;2.92;;;1.60;;
21741;SDS011;11033;47.490;11.116;2023-12-04T08:04:48;2.08;;;1.67;;
21741;SDS011;11033;47.490;11.116;2023-12-04T08:07:13;3.00;;;2.00;;
21741;SDS011;11033;47.490;11.116;2023-12-04T08:09:38;3.58;;;2.25;;
21741;SDS011;11033;47.490;11.116;2023-12-04T08:12:04;3.88;;;2.33;;
21741;SDS011;11033;47.490;11.116;2023-12-04T08:14:29;3.88;;;2.90;;
21741;SDS011;11033;47.490;11.116;2023-12-04T08:16:55;4.40;;;3.50;;
21741;SDS011;11033;47.490;11.116;2023-12-04T08:19:20;8.15;;;6.90;;
21741;SDS011;11033;47.490;11.116;2023-12-04T08:21:45;8.50;;;4.97;;
21741;SDS011;11033;47.490;11.116;2023-12-04T08:24:11;4.00;;;3.20;;
21741;SDS011;11033;47.490;11.116;2023-12-04T08:26:36;3.60;;;2.47;;
21741;SDS011;11033;47.490;11.116;2023-12-04T08:29:02;3.40;;;1.90;;
21741;SDS011;11033;47.490;11.116;2023-12-04T08:31:27;2.35;;;1.80;;
21741;SDS011;11033;47.490;11.116;2023-12-04T08:33:53;2.13;;;1.70;;
21741;SDS011;11033;47.490;11.116;2023-12-04T08:36:18;2.65;;;2.40;;
21741;SDS011;11033;47.490;11.116;2023-12-04T08:38:43;3.20;;;2.60;;
21741;SDS011;11033;47.490;11.116;2023-12-04T08:41:09;4.35;;;3.40;;
21741;SDS011;11033;47.490;11.116;2023-12-04T08:43:34;3.95;;;3.45;;
21741;SDS011;11033;47.490;11.116;2023-12-04T08:45:59;4.90;;;3.80;;
21741;SDS011;11033;47.490;11.116;2023-12-04T08:48:25;8.13;;;6.50;;
21741;SDS011;11033;47.490;11.116;2023-12-04T08:50:50;8.13;;;6.13;;
21741;SDS011;11033;47.490;11.116;2023-12-04T08:53:16;6.40;;;4.65;;
21741;SDS011;11033;47.490;11.116;2023-12-04T08:55:41;4.65;;;2.58;;
21741;SDS011;11033;47.490;11.116;2023-12-04T08:58:06;3.13;;;2.83;;
21741;SDS011;11033;47.490;11.116;2023-12-04T09:00:32;5.05;;;3.50;;
21741;SDS011;11033;47.490;11.116;2023-12-04T09:02:57;3.70;;;2.88;;
21741;SDS011;11033;47.490;11.116;2023-12-04T09:05:22;3.08;;;2.70;;
21741;SDS011;11033;47.490;11.116;2023-12-04T09:07:48;4.70;;;3.80;;
21741;SDS011;11033;47.490;11.116;2023-12-04T09:10:13;3.33;;;2.75;;
21741;SDS011;11033;47.490;11.116;2023-12-04T09:12:39;3.80;;;3.10;;
21741;SDS011;11033;47.490;11.116;2023-12-04T09:15:05;2.53;;;2.08;;
21741;SDS011;11033;47.490;11.116;2023-12-04T09:17:30;2.53;;;2.33;;
21741;SDS011;11033;47.490;11.116;2023-12-04T09:19:56;2.38;;;2.17;;
21741;SDS011;11033;47.490;11.116;2023-12-04T09:22:21;2.83;;;2.10;;
21741;SDS011;11033;47.490;11.116;2023-12-04T09:24:46;3.03;;;2.60;;
21741;SDS011;11033;47.490;11.116;2023-12-04T09:27:12;7.38;;;4.53;;
21741;SDS011;11033;47.490;11.116;2023-12-04T09:29:37;5.75;;;4.85;;
21741;SDS011;11033;47.490;11.116;2023-12-04T09:32:02;3.13;;;2.72;;
21741;SDS011;11033;47.490;11.116;2023-12-04T09:34:28;4.60;;;2.60;;
21741;SDS011;11033;47.490;11.116;2023-12-04T09:36:53;3.22;;;2.92;;
21741;SDS011;11033;47.490;11.116;2023-12-04T09:39:19;3.58;;;2.72;;
21741;SDS011;11033;47.490;11.116;2023-12-04T09:41:44;4.43;;;2.40;;
21741;SDS011;11033;47.490;11.116;2023-12-04T09:44:11;3.42;;;2.20;;
21741;SDS011;11033;47.490;11.116;2023-12-04T09:46:37;2.15;;;1.95;;
21741;SDS011;11033;47.490;11.116;2023-12-04T09:49:03;4.72;;;2.55;;
21741;SDS011;11033;47.490;11.116;2023-12-04T09:51:30;4.18;;;2.20;;
21741;SDS011;11033;47.490;11.116;2023-12-04T09:53:55;2.90;;;2.28;;
21741;SDS011;11033;47.490;11.116;2023-12-04T09:56:24;3.30;;;2.17;;
21741;SDS011;11033;47.490;11.116;2023-12-04T09:58:52;5.18;;;2.60;;
21741;SDS011;11033;47.490;11.116;2023-12-04T10:01:20;4.28;;;2.60;;
21741;SDS011;11033;47.490;11.116;2023-12-04T10:03:46;4.30;;;2.83;;
21741;SDS011;11033;47.490;11.116;2023-12-04T10:06:12;2.53;;;2.33;;
21741;SDS011;11033;47.490;11.116;2023-12-04T10:08:42;2.78;;;2.58;;
21741;SDS011;11033;47.490;11.116;2023-12-04T10:11:07;5.50;;;4.30;;
21741;SDS011;11033;47.490;11.116;2023-12-04T10:13:33;5.28;;;2.70;;
21741;SDS011;11033;47.490;11.116;2023-12-04T10:15:58;3.55;;;2.78;;
21741;SDS011;11033;47.490;11.116;2023-12-04T10:18:24;2.60;;;2.20;;
21741;SDS011;11033;47.490;11.116;2023-12-04T10:20:55;3.83;;;1.98;;
21741;SDS011;11033;47.490;11.116;2023-12-04T10:23:21;3.58;;;2.20;;
21741;SDS011;11033;47.490;11.116;2023-12-04T10:25:48;3.58;;;2.38;;
21741;SDS011;11033;47.490;11.116;2023-12-04T10:28:17;2.53;;;2.00;;
21741;SDS011;11033;47.490;11.116;2023-12-04T10:30:44;3.72;;;2.10;;
21741;SDS011;11033;47.490;11.116;2023-12-04T10:33:10;15.95;;;13.75;;
21741;SDS011;11033;47.490;11.116;2023-12-04T10:35:37;7.82;;;6.70;;
21741;SDS011;11033;47.490;11.116;2023-12-04T10:38:03;5.22;;;3.80;;
21741;SDS011;11033;47.490;11.116;2023-12-04T10:40:30;5.05;;;2.80;;
21741;SDS011;11033;47.490;11.116;2023-12-04T10:45:41;3.10;;;2.00;;
21741;SDS011;11033;47.490;11.116;2023-12-04T10:48:07;4.05;;;2.10;;
21741;SDS011;11033;47.490;11.116;2023-12-04T10:50:34;2.03;;;1.83;;
21741;SDS011;11033;47.490;11.116;2023-12-04T10:53:03;2.00;;;1.80;;
21741;SDS011;11033;47.490;11.116;2023-12-04T10:55:29;1.80;;;1.70;;
21741;SDS011;11033;47.490;11.116;2023-12-04T10:57:55;2.00;;;1.80;;
21741;SDS011;11033;47.490;11.116;2023-12-04T11:00:21;1.70;;;1.60;;
21741;SDS011;11033;47.490;11.116;2023-12-04T11:02:47;2.70;;;1.90;;
21741;SDS011;11033;47.490;11.116;2023-12-04T11:05:14;2.05;;;1.85;;
21741;SDS011;11033;47.490;11.116;2023-12-04T11:07:49;1.85;;;1.73;;
21741;SDS011;11033;47.490;11.116;2023-12-04T11:10:19;2.20;;;2.00;;
21741;SDS011;11033;47.490;11.116;2023-12-04T11:12:47;3.60;;;1.90;;
21741;SDS011;11033;47.490;11.116;2023-12-04T11:15:19;3.08;;;2.45;;
21741;SDS011;11033;47.490;11.116;2023-12-04T11:17:49;3.63;;;1.80;;
21741;SDS011;11033;47.490;11.116;2023-12-04T11:20:19;2.35;;;1.80;;
21741;SDS011;11033;47.490;11.116;2023-12-04T11:22:49;2.35;;;1.80;;
21741;SDS011;11033;47.490;11.116;2023-12-04T11:25:16;3.13;;;1.67;;
21741;SDS011;11033;47.490;11.116;2023-12-04T11:27:42;2.70;;;1.92;;
21741;SDS011;11033;47.490;11.116;2023-12-04T11:30:08;3.13;;;2.40;;
21741;SDS011;11033;47.490;11.116;2023-12-04T11:32:44;3.30;;;2.85;;
21741;SDS011;11033;47.490;11.116;2023-12-04T11:35:14;5.45;;;2.40;;
21741;SDS011;11033;47.490;11.116;2023-12-04T11:37:41;2.42;;;2.22;;
21741;SDS011;11033;47.490;11.116;2023-12-04T11:40:08;2.10;;;1.90;;
21741;SDS011;11033;47.490;11.116;2023-12-04T11:42:36;2.03;;;1.80;;
21741;SDS011;11033;47.490;11.116;2023-12-04T11:45:04;4.60;;;1.90;;
21741;SDS011;11033;47.490;11.116;2023-12-04T11:47:30;2.08;;;1.70;;
21741;SDS011;11033;47.490;11.116;2023-12-04T11:50:13;1.85;;;1.75;;
21741;SDS011;11033;47.490;11.116;2023-12-04T11:52:38;2.65;;;2.10;;
21741;SDS011;11033;47.490;11.116;2023-12-04T11:55:04;2.30;;;2.10;;
21741;SDS011;11033;47.490;11.116;2023-12-04T11:57:39;3.13;;;2.15;;
21741;SDS011;11033;47.490;11.116;2023-12-04T12:02:40;2.85;;;1.83;;
21741;SDS011;11033;47.490;11.116;2023-12-04T12:05:06;5.93;;;3.60;;
21741;SDS011;11033;47.490;11.116;2023-12-04T12:07:32;5.47;;;3.42;;
21741;SDS011;11033;47.490;11.116;2023-12-04T12:09:58;6.53;;;3.30;;
21741;SDS011;11033;47.490;11.116;2023-12-04T12:12:24;5.50;;;4.05;;
21741;SDS011;11033;47.490;11.116;2023-12-04T12:14:51;9.20;;;8.60;;
21741;SDS011;11033;47.490;11.116;2023-12-04T12:17:16;7.78;;;7.18;;
21741;SDS011;11033;47.490;11.116;2023-12-04T12:19:42;3.92;;;3.63;;
21741;SDS011;11033;47.490;11.116;2023-12-04T12:22:07;3.03;;;2.83;;
21741;SDS011;11033;47.490;11.116;2023-12-04T12:24:32;2.72;;;2.53;;
21741;SDS011;11033;47.490;11.116;2023-12-04T12:26:58;2.17;;;1.90;;
21741;SDS011;11033;47.490;11.116;2023-12-04T12:29:24;2.45;;;2.25;;
21741;SDS011;11033;47.490;11.116;2023-12-04T12:31:50;2.28;;;1.98;;
21741;SDS011;11033;47.490;11.116;2023-12-04T12:34:16;2.05;;;1.70;;
21741;SDS011;11033;47.490;11.116;2023-12-04T12:36:42;3.05;;;2.08;;
21741;SDS011;11033;47.490;11.116;2023-12-04T12:39:07;2.00;;;1.73;;
21741;SDS011;11033;47.490;11.116;2023-12-04T12:41:33;2.35;;;2.05;;
21741;SDS011;11033;47.490;11.116;2023-12-04T12:44:00;1.92;;;1.60;;
21741;SDS011;11033;47.490;11.116;2023-12-04T12:46:25;2.80;;;1.60;;
21741;SDS011;11033;47.490;11.116;2023-12-04T12:48:51;3.70;;;1.75;;
21741;SDS011;11033;47.490;11.116;2023-12-04T12:51:17;1.58;;;1.48;;
21741;SDS011;11033;47.490;11.116;2023-12-04T12:53:43;2.45;;;2.00;;
21741;SDS011;11033;47.490;11.116;2023-12-04T12:56:09;2.35;;;1.50;;
21741;SDS011;11033;47.490;11.116;2023-12-04T12:58:35;1.50;;;1.40;;
21741;SDS011;11033;47.490;11.116;2023-12-04T13:01:00;4.15;;;3.75;;
21741;SDS011;11033;47.490;11.116;2023-12-04T13:03:26;5.90;;;5.60;;
21741;SDS011;11033;47.490;11.116;2023-12-04T13:05:52;5.63;;;5.22;;
21741;SDS011;11033;47.490;11.116;2023-12-04T13:08:18;2.25;;;1.50;;
21741;SDS011;11033;47.490;11.116;2023-12-04T13:10:43;1.70;;;1.60;;
21741;SDS011;11033;47.490;11.116;2023-12-04T13:13:12;4.38;;;4.18;;
21741;SDS011;11033;47.490;11.116;2023-12-04T13:15:40;1999.90;;;999.90;;
21741;SDS011;11033;47.490;11.116;2023-12-04T13:18:06;1999.90;;;999.90;;
21741;SDS011;11033;47.490;11.116;2023-12-04T13:20:32;1999.90;;;999.90;;
21741;SDS011;11033;47.490;11.116;2023-12-04T13:22:59;16.25;;;15.45;;
21741;SDS011;11033;47.490;11.116;2023-12-04T13:25:24;1999.90;;;999.90;;
21741;SDS011;11033;47.490;11.116;2023-12-04T13:27:50;1999.90;;;999.90;;
21741;SDS011;11033;47.490;11.116;2023-12-04T13:30:15;18.05;;;17.05;;
21741;SDS011;11033;47.490;11.116;2023-12-04T13:32:40;3.40;;;3.20;;
21741;SDS011;11033;47.490;11.116;2023-12-04T13:35:06;3.15;;;2.92;;
21741;SDS011;11033;47.490;11.116;2023-12-04T13:37:33;1.60;;;1.50;;
21741;SDS011;11033;47.490;11.116;2023-12-04T13:40:00;5.60;;;2.88;;
21741;SDS011;11033;47.490;11.116;2023-12-04T13:42:31;1.60;;;1.50;;
21741;SDS011;11033;47.490;11.116;2023-12-04T13:45:16;4.65;;;2.95;;
21741;SDS011;11033;47.490;11.116;2023-12-04T13:47:41;3.15;;;2.40;;
21741;SDS011;11033;47.490;11.116;2023-12-04T13:50:07;5.18;;;3.20;;
21741;SDS011;11033;47.490;11.116;2023-12-04T13:52:36;4.15;;;2.80;;
21741;SDS011;11033;47.490;11.116;2023-12-04T13:55:03;5.28;;;2.67;;
21741;SDS011;11033;47.490;11.116;2023-12-04T13:57:39;2.38;;;1.80;;
21741;SDS011;11033;47.490;11.116;2023-12-04T14:00:19;3.40;;;1.90;;
21741;SDS011;11033;47.490;11.116;2023-12-04T14:02:45;4.45;;;3.10;;
21741;SDS011;11033;47.490;11.116;2023-12-04T14:05:10;2.70;;;2.50;;
21741;SDS011;11033;47.490;11.116;2023-12-04T14:07:40;2.38;;;2.17;;
21741;SDS011;11033;47.490;11.116;2023-12-04T14:10:08;4.60;;;3.05;;
21741;SDS011;11033;47.490;11.116;2023-12-04T14:12:34;2.42;;;1.67;;
21741;SDS011;11033;47.490;11.116;2023-12-04T14:15:00;8.05;;;3.30;;
21741;SDS011;11033;47.490;11.116;2023-12-04T14:17:25;13.52;;;7.35;;
21741;SDS011;11033;47.490;11.116;2023-12-04T14:19:50;7.68;;;5.47;;
21741;SDS011;11033;47.490;11.116;2023-12-04T14:22:15;11.38;;;6.00;;
21741;SDS011;11033;47.490;11.116;2023-12-04T14:24:41;8.73;;;7.13;;
21741;SDS011;11033;47.490;11.116;2023-12-04T14:27:06;11.57;;;7.40;;
21741;SDS011;11033;47.490;11.116;2023-12-04T14:29:31;7.32;;;5.80;;
21741;SDS011;11033;47.490;11.116;2023-12-04T14:31:57;3.08;;;2.55;;